createdAt,value
2018-09-03T00:04:28.085Z,46.5
2018-09-03T00:14:42.306Z,46.4
2018-09-03T00:25:27.471Z,46.3
2018-09-03T00:35:41.853Z,45.8
2018-09-03T00:45:55.796Z,47.1
2018-09-03T00:56:10.159Z,46.8
2018-09-03T01:06:55.782Z,46.3
2018-09-03T01:17:09.753Z,45.9
2018-09-03T01:27:22.228Z,48.0
2018-09-03T01:37:34.388Z,47.3
2018-09-03T01:47:48.279Z,46.8
2018-09-03T01:58:03.198Z,46.8
2018-09-03T02:08:16.856Z,46.7
2018-09-03T02:19:03.593Z,47.7
2018-09-03T02:29:18.029Z,46.4
2018-09-03T02:39:32.096Z,46.6
2018-09-03T02:49:43.393Z,46.8
2018-09-03T02:59:57.683Z,48.4
2018-09-03T03:10:11.787Z,47.6
2018-09-03T03:20:23.566Z,48.2
2018-09-03T03:31:07.748Z,48.2
2018-09-03T03:41:22.486Z,48.6
2018-09-03T03:52:07.976Z,47.6
2018-09-03T04:02:22.036Z,47.9
2018-09-03T04:12:36.363Z,47.8
2018-09-03T04:22:50.453Z,48.7
2018-09-03T04:33:04.769Z,48.4
2018-09-03T04:43:19.012Z,47.8
2018-09-03T04:53:32.986Z,47.6
2018-09-03T05:03:47.432Z,47.5
2018-09-03T05:14:01.596Z,47.4
2018-09-03T05:24:46.965Z,47.3
2018-09-03T05:35:00.680Z,47.2
2018-09-03T05:45:14.485Z,47.6
2018-09-03T05:55:29.071Z,47.7
2018-09-03T06:05:43.319Z,50.5
2018-09-03T06:16:58.749Z,50.5
2018-09-03T06:27:12.352Z,49.6
2018-09-03T06:37:26.316Z,49.1
2018-09-03T06:47:40.558Z,51.2
2018-09-03T06:57:55.086Z,50.7
2018-09-03T07:08:09.299Z,51.3
2018-09-03T07:18:54.093Z,52.2
2018-09-03T07:29:07.999Z,52.7
2018-09-03T07:39:21.572Z,52.4
2018-09-03T07:49:35.720Z,51.7
2018-09-03T07:59:49.970Z,50.9
2018-09-03T08:10:04.664Z,51.2
2018-09-03T08:20:16.932Z,51.2
2018-09-03T08:30:30.629Z,53.4
2018-09-03T08:40:45.551Z,52.8
2018-09-03T08:50:59.405Z,53.5
2018-09-03T09:01:29.256Z,53.9
2018-09-03T09:11:43.530Z,54.9
2018-09-03T09:21:54.926Z,55.0
2018-09-03T09:42:23.865Z,48.7
2018-09-03T09:52:37.706Z,44.8
2018-09-03T10:02:51.719Z,43.0
2018-09-03T10:13:07.330Z,42.8
2018-09-03T10:23:21.288Z,41.7
2018-09-03T10:33:35.935Z,40.1
2018-09-03T10:43:50.055Z,38.9
2018-09-03T10:54:03.979Z,37.8
2018-09-03T11:04:18.172Z,37.0
2018-09-03T11:14:32.136Z,35.9
2018-09-03T11:24:46.525Z,35.1
2018-09-03T11:34:58.092Z,34.0
2018-09-03T11:45:10.311Z,34.4
2018-09-03T11:56:03.597Z,33.3
2018-09-03T12:06:17.310Z,34.1
2018-09-03T12:16:39.938Z,34.7
2018-09-03T12:26:53.404Z,35.6
2018-09-03T12:37:08.019Z,36.7
2018-09-03T12:47:22.011Z,36.7
2018-09-03T12:57:36.159Z,37.3
2018-09-03T13:07:54.782Z,37.8
2018-09-03T13:18:11.324Z,38.2
2018-09-03T13:28:36.755Z,37.9
2018-09-03T13:39:30.640Z,37.7
2018-09-03T13:49:58.519Z,37.8
2018-09-03T14:00:46.026Z,37.8
2018-09-03T14:12:05.474Z,38.1
2018-09-03T14:22:37.437Z,38.7
2018-09-03T14:32:51.853Z,39.8
2018-09-03T14:53:54.742Z,41.5
2018-09-03T15:04:39.514Z,41.3
2018-09-03T15:14:55.054Z,42.3
2018-09-03T15:25:06.691Z,42.6
2018-09-03T15:35:28.614Z,43.5
2018-09-03T15:45:42.851Z,43.6
2018-09-03T15:56:27.182Z,43.6
2018-09-03T16:07:13.589Z,44.0
2018-09-03T16:17:27.628Z,44.0
2018-09-03T16:28:13.157Z,44.3
2018-09-03T16:38:32.432Z,44.4
2018-09-03T16:48:49.957Z,44.6
2018-09-03T16:59:34.068Z,44.8
2018-09-03T17:10:18.862Z,45.5
2018-09-03T17:20:36.157Z,45.8
2018-09-03T17:30:50.737Z,45.7
2018-09-03T17:41:36.246Z,46.7
2018-09-03T17:53:19.786Z,47.3
2018-09-03T18:03:34.186Z,47.1
2018-09-03T18:13:48.387Z,47.8
2018-09-03T18:24:02.645Z,48.3
2018-09-03T18:34:27.231Z,49.0
2018-09-03T18:44:40.905Z,49.1
2018-09-03T18:54:54.657Z,49.5
2018-09-03T19:05:11.368Z,50.0
2018-09-03T19:15:25.432Z,50.1
2018-09-03T19:25:39.653Z,50.4
2018-09-03T19:36:24.207Z,50.6
2018-09-03T19:46:42.993Z,50.5
2018-09-03T19:56:56.569Z,50.7
2018-09-03T20:07:10.807Z,50.7
2018-09-03T20:17:24.919Z,51.0
2018-09-03T20:27:39.518Z,50.6
2018-09-03T20:37:53.925Z,50.4
2018-09-03T20:48:07.682Z,51.3
2018-09-03T20:58:22.223Z,50.6
2018-09-03T21:08:36.254Z,50.2
2018-09-03T21:18:50.578Z,50.7
2018-09-03T21:29:02.873Z,50.6
2018-09-03T21:39:17.230Z,52.1
2018-09-03T21:50:01.879Z,53.3
2018-09-03T22:00:47.500Z,56.2
2018-09-03T22:11:32.373Z,56.2
2018-09-03T22:22:19.214Z,56.4
2018-09-03T22:32:33.794Z,56.2
2018-09-03T22:43:19.213Z,57.6
2018-09-03T22:54:03.800Z,56.4
2018-09-03T23:04:49.678Z,56.1
2018-09-03T23:15:03.909Z,55.9
2018-09-03T23:25:16.305Z,56.3
2018-09-03T23:36:00.719Z,55.7
2018-09-03T23:46:15.299Z,55.3
2018-09-03T23:56:29.035Z,55.3
